createdAt,value
2018-05-29T00:01:57.065Z,18.67
2018-05-29T00:04:24.629Z,18.80
2018-05-29T00:07:02.081Z,19.60
2018-05-29T00:09:29.653Z,19.33
2018-05-29T00:11:59.804Z,19.30
2018-05-29T00:14:27.361Z,21.10
2018-05-29T00:16:54.939Z,21.17
2018-05-29T00:19:22.508Z,21.07
2018-05-29T00:21:50.078Z,21.57
2018-05-29T00:24:18.072Z,22.13
2018-05-29T00:26:57.514Z,20.57
2018-05-29T00:29:25.083Z,21.70
2018-05-29T00:31:52.637Z,20.77
2018-05-29T00:34:20.191Z,21.00
2018-05-29T00:36:47.790Z,21.30
2018-05-29T00:39:16.428Z,22.13
2018-05-29T00:41:43.988Z,23.03
2018-05-29T00:44:11.948Z,20.87
2018-05-29T00:46:39.492Z,21.00
2018-05-29T00:49:07.042Z,23.20
2018-05-29T00:51:34.597Z,23.13
2018-05-29T00:54:03.212Z,22.53
2018-05-29T00:56:32.764Z,23.30
2018-05-29T00:59:01.451Z,22.53
2018-05-29T01:01:29.043Z,22.80
2018-05-29T01:03:56.598Z,24.27
2018-05-29T01:06:47.852Z,24.73
2018-05-29T01:09:17.363Z,24.37
2018-05-29T01:11:49.503Z,25.17
2018-05-29T01:14:18.192Z,24.73
2018-05-29T01:16:51.370Z,22.73
2018-05-29T01:19:19.697Z,26.27
2018-05-29T01:21:47.678Z,25.13
2018-05-29T01:24:16.113Z,25.00
2018-05-29T01:26:43.660Z,21.97
2018-05-29T01:29:15.969Z,25.07
2018-05-29T01:31:43.589Z,23.63
2018-05-29T01:34:17.152Z,24.67
2018-05-29T01:36:44.715Z,23.77
2018-05-29T01:39:12.694Z,23.37
2018-05-29T01:41:40.239Z,25.57
2018-05-29T01:44:07.806Z,25.03
2018-05-29T01:46:35.418Z,26.63
2018-05-29T01:49:02.964Z,25.97
2018-05-29T01:51:30.534Z,27.30
2018-05-29T01:54:00.129Z,26.90
2018-05-29T01:56:27.698Z,27.03
2018-05-29T01:58:57.185Z,25.53
2018-05-29T02:01:24.816Z,26.73
2018-05-29T02:03:52.449Z,26.87
2018-05-29T02:06:20.002Z,24.97
2018-05-29T02:08:47.544Z,25.57
2018-05-29T02:11:15.103Z,26.07
2018-05-29T02:13:42.648Z,25.47
2018-05-29T02:16:10.187Z,26.83
2018-05-29T02:18:37.743Z,27.53
2018-05-29T02:21:05.313Z,28.97
2018-05-29T02:23:33.269Z,28.70
2018-05-29T02:26:01.230Z,29.63
2018-05-29T02:28:28.787Z,31.13
2018-05-29T02:30:56.346Z,31.47
2018-05-29T02:33:24.791Z,30.50
2018-05-29T02:35:52.344Z,32.27
2018-05-29T02:38:19.916Z,29.70
2018-05-29T02:40:47.459Z,32.03
2018-05-29T02:45:48.678Z,34.23
2018-05-29T02:48:16.227Z,32.23
2018-05-29T02:50:43.803Z,33.73
2018-05-29T02:53:11.365Z,33.87
2018-05-29T02:55:38.920Z,31.33
2018-05-29T02:58:06.456Z,33.27
2018-05-29T03:00:34.055Z,31.40
2018-05-29T03:03:01.626Z,33.60
2018-05-29T03:05:29.199Z,33.37
2018-05-29T03:07:56.721Z,33.37
2018-05-29T03:10:24.297Z,32.00
2018-05-29T03:12:52.259Z,32.13
2018-05-29T03:15:20.223Z,35.20
2018-05-29T03:17:47.780Z,33.07
2018-05-29T03:20:15.337Z,33.70
2018-05-29T03:22:49.665Z,31.90
2018-05-29T03:25:17.281Z,30.60
2018-05-29T03:27:59.920Z,30.97
2018-05-29T03:30:27.939Z,34.27
2018-05-29T03:32:55.737Z,33.40
2018-05-29T03:35:23.276Z,31.80
2018-05-29T03:37:54.742Z,32.17
2018-05-29T03:40:22.300Z,30.97
2018-05-29T03:42:49.835Z,32.60
2018-05-29T03:45:17.812Z,33.93
2018-05-29T03:47:45.381Z,31.40
2018-05-29T03:50:26.197Z,32.70
2018-05-29T03:52:57.462Z,31.87
2018-05-29T03:55:25.007Z,33.97
2018-05-29T03:57:52.587Z,33.47
2018-05-29T04:00:20.558Z,31.43
2018-05-29T04:02:48.122Z,32.57
2018-05-29T04:05:15.670Z,31.40
2018-05-29T04:07:44.214Z,30.67
2018-05-29T04:10:11.752Z,32.50
2018-05-29T04:12:39.295Z,31.60
2018-05-29T04:15:07.237Z,32.73
2018-05-29T04:17:34.805Z,31.93
2018-05-29T04:20:02.327Z,30.37
2018-05-29T04:22:29.916Z,32.20
2018-05-29T04:24:59.334Z,31.40
2018-05-29T04:27:26.876Z,32.90
2018-05-29T04:29:57.732Z,30.83
2018-05-29T04:32:25.298Z,31.47
2018-05-29T04:37:28.330Z,31.57
2018-05-29T04:39:57.614Z,32.03
2018-05-29T04:42:29.124Z,32.13
2018-05-29T04:44:59.783Z,30.03
2018-05-29T04:47:27.367Z,32.37
2018-05-29T04:49:55.397Z,30.00
2018-05-29T04:52:22.967Z,32.87
2018-05-29T04:54:51.494Z,30.17
2018-05-29T04:57:19.040Z,31.50
2018-05-29T04:59:47.013Z,28.93
2018-05-29T05:02:14.938Z,30.60
2018-05-29T05:04:42.485Z,30.40
2018-05-29T05:07:10.028Z,31.43
2018-05-29T05:09:38.447Z,31.40
2018-05-29T05:12:05.996Z,29.13
2018-05-29T05:14:33.566Z,32.23
2018-05-29T05:17:01.119Z,30.03
2018-05-29T05:19:32.280Z,30.10
2018-05-29T05:22:03.165Z,28.90
2018-05-29T05:24:31.207Z,28.37
2018-05-29T05:26:59.736Z,28.27
2018-05-29T05:29:27.291Z,27.73
2018-05-29T05:31:54.835Z,28.33
2018-05-29T05:34:22.518Z,27.87
2018-05-29T05:36:51.390Z,29.13
2018-05-29T05:39:20.358Z,26.10
2018-05-29T05:41:49.526Z,28.40
2018-05-29T05:44:18.916Z,28.67
2018-05-29T05:46:47.458Z,27.33
2018-05-29T05:49:19.118Z,28.33
2018-05-29T05:51:47.724Z,27.43
2018-05-29T05:54:18.918Z,27.37
2018-05-29T05:56:48.290Z,27.03
2018-05-29T05:59:17.654Z,26.53
2018-05-29T06:01:46.988Z,25.97
2018-05-29T06:04:16.176Z,26.30
2018-05-29T06:06:45.560Z,25.87
2018-05-29T06:09:14.815Z,26.23
2018-05-29T06:11:47.933Z,24.77
2018-05-29T06:14:16.733Z,25.73
2018-05-29T06:16:45.453Z,23.77
2018-05-29T06:21:51.708Z,22.80
2018-05-29T06:24:24.589Z,21.83
2018-05-29T06:26:53.409Z,21.93
2018-05-29T06:29:22.829Z,22.53
2018-05-29T06:31:51.868Z,21.03
2018-05-29T06:34:21.710Z,20.43
2018-05-29T06:36:50.875Z,20.37
2018-05-29T06:39:22.094Z,19.30
2018-05-29T06:41:51.156Z,18.13
2018-05-29T06:44:23.452Z,17.50
2018-05-29T06:46:52.370Z,17.73
2018-05-29T06:49:24.603Z,16.07
2018-05-29T06:51:53.260Z,16.80
2018-05-29T06:54:24.737Z,15.63
2018-05-29T06:56:52.733Z,15.23
2018-05-29T06:59:22.909Z,14.07
2018-05-29T07:01:52.447Z,13.20
2018-05-29T07:04:21.055Z,12.47
2018-05-29T07:06:49.403Z,13.20
2018-05-29T07:09:28.994Z,10.90
2018-05-29T07:11:58.038Z,12.10
2018-05-29T07:14:31.065Z,11.57
2018-05-29T07:16:59.766Z,11.17
2018-05-29T07:19:28.039Z,11.20
2018-05-29T07:21:56.915Z,10.57
2018-05-29T07:24:25.262Z,10.77
2018-05-29T07:26:53.200Z,10.47
2018-05-29T07:29:23.975Z,9.90
2018-05-29T07:31:52.923Z,9.53
2018-05-29T07:34:26.853Z,9.73
2018-05-29T07:36:59.527Z,9.70
2018-05-29T07:39:32.313Z,9.53
2018-05-29T07:42:01.230Z,8.90
2018-05-29T07:44:33.555Z,9.27
2018-05-29T07:47:02.728Z,9.17
2018-05-29T07:49:32.157Z,8.60
2018-05-29T07:52:00.805Z,9.50
2018-05-29T07:54:29.821Z,8.90
2018-05-29T07:56:58.124Z,9.17
2018-05-29T07:59:26.950Z,9.13
2018-05-29T08:01:55.613Z,10.07
2018-05-29T08:04:24.627Z,8.97
2018-05-29T08:06:53.074Z,9.17
2018-05-29T08:09:21.801Z,9.30
2018-05-29T08:11:54.539Z,10.07
2018-05-29T08:14:24.078Z,9.67
2018-05-29T08:16:54.626Z,9.93
2018-05-29T08:19:23.038Z,9.87
2018-05-29T08:21:55.381Z,9.13
2018-05-29T08:24:24.173Z,9.83
2018-05-29T08:26:55.325Z,9.17
2018-05-29T08:29:23.975Z,9.30
2018-05-29T08:31:55.475Z,9.50
2018-05-29T08:34:24.709Z,9.97
2018-05-29T08:36:56.255Z,9.27
2018-05-29T08:39:24.914Z,9.47
2018-05-29T08:41:53.529Z,10.07
2018-05-29T08:44:30.701Z,9.30
2018-05-29T08:46:59.415Z,9.87
2018-05-29T08:49:27.786Z,9.07
2018-05-29T08:51:55.708Z,9.27
2018-05-29T08:54:24.280Z,9.47
2018-05-29T08:56:52.616Z,9.23
2018-05-29T08:59:20.839Z,9.57
2018-05-29T09:01:49.634Z,9.40
2018-05-29T09:04:21.629Z,8.77
2018-05-29T09:06:49.460Z,9.67
2018-05-29T09:09:18.102Z,9.23
2018-05-29T09:11:46.726Z,9.43
2018-05-29T09:14:16.018Z,9.50
2018-05-29T09:16:45.928Z,10.40
2018-05-29T09:19:21.677Z,9.43
2018-05-29T09:21:50.016Z,9.50
2018-05-29T09:24:20.129Z,8.75
2018-05-29T09:26:49.065Z,9.25
2018-05-29T09:29:17.733Z,9.45
2018-05-29T09:31:46.329Z,9.52
2018-05-29T09:34:15.761Z,9.45
2018-05-29T09:36:44.597Z,9.50
2018-05-29T09:39:13.070Z,9.10
2018-05-29T09:41:41.821Z,9.77
2018-05-29T09:44:10.270Z,9.38
2018-05-29T09:46:38.862Z,9.95
2018-05-29T09:49:07.607Z,9.95
2018-05-29T09:51:36.450Z,9.38
2018-05-29T09:54:08.854Z,9.57
2018-05-29T09:56:37.534Z,9.07
2018-05-29T09:59:11.957Z,9.55
2018-05-29T10:01:40.396Z,9.68
2018-05-29T10:04:10.967Z,9.43
2018-05-29T10:06:39.563Z,10.02
2018-05-29T10:09:08.712Z,9.85
2018-05-29T10:11:41.403Z,9.50
2018-05-29T10:14:10.499Z,9.27
2018-05-29T10:16:45.572Z,9.98
2018-05-29T10:19:14.274Z,9.65
2018-05-29T10:21:42.796Z,9.65
2018-05-29T10:24:17.725Z,10.10
2018-05-29T10:26:47.041Z,9.93
2018-05-29T10:29:16.509Z,9.80
2018-05-29T10:31:45.671Z,10.15
2018-05-29T10:34:15.005Z,9.38
2018-05-29T10:36:43.982Z,9.60
2018-05-29T10:39:13.909Z,9.73
2018-05-29T10:41:46.545Z,10.60
2018-05-29T10:44:14.841Z,10.57
2018-05-29T10:46:47.919Z,10.90
2018-05-29T10:49:16.538Z,10.50
2018-05-29T10:51:48.289Z,10.65
2018-05-29T10:54:16.840Z,10.63
2018-05-29T10:56:51.531Z,10.90
2018-05-29T10:59:20.592Z,10.10
2018-05-29T11:01:51.421Z,10.55
2018-05-29T11:04:19.932Z,10.95
2018-05-29T11:06:48.691Z,10.75
2018-05-29T11:09:17.482Z,10.55
2018-05-29T11:11:45.980Z,11.40
2018-05-29T11:14:15.279Z,10.38
2018-05-29T11:16:44.029Z,11.20
2018-05-29T11:19:13.052Z,10.90
2018-05-29T11:21:42.446Z,10.40
2018-05-29T11:24:11.274Z,10.70
2018-05-29T11:26:41.165Z,11.27
2018-05-29T11:29:09.720Z,11.27
2018-05-29T11:31:40.594Z,10.80
2018-05-29T11:34:09.578Z,11.73
2018-05-29T11:36:38.208Z,10.70
2018-05-29T11:39:06.739Z,11.45
2018-05-29T11:41:35.207Z,11.55
2018-05-29T11:44:07.054Z,11.57
2018-05-29T11:46:35.334Z,11.95
2018-05-29T11:49:03.652Z,11.70
2018-05-29T11:51:32.308Z,11.95
2018-05-29T11:54:01.973Z,11.60
2018-05-29T11:56:31.314Z,11.20
2018-05-29T11:59:02.704Z,11.60
2018-05-29T12:01:31.266Z,11.82
2018-05-29T12:04:00.244Z,11.73
2018-05-29T12:06:29.182Z,11.57
2018-05-29T12:08:57.608Z,11.45
2018-05-29T12:11:26.034Z,11.93
2018-05-29T12:13:55.077Z,12.05
2018-05-29T12:16:24.591Z,12.73
2018-05-29T12:19:00.739Z,12.05
2018-05-29T12:21:29.862Z,12.00
2018-05-29T12:23:58.657Z,12.32
2018-05-29T12:26:27.947Z,11.20
2018-05-29T12:28:57.490Z,11.93
2018-05-29T12:31:25.711Z,11.15
2018-05-29T12:33:59.176Z,12.48
2018-05-29T12:36:27.921Z,12.52
2018-05-29T12:38:56.199Z,11.90
2018-05-29T12:41:24.105Z,13.10
2018-05-29T12:43:53.209Z,11.82
2018-05-29T12:46:22.503Z,12.05
2018-05-29T12:48:51.427Z,12.23
2018-05-29T12:51:30.419Z,13.30
2018-05-29T12:53:58.718Z,12.48
2018-05-29T12:56:33.525Z,12.68
2018-05-29T12:59:02.350Z,11.93
2018-05-29T13:01:31.845Z,11.95
2018-05-29T13:04:00.661Z,11.18
2018-05-29T13:06:28.958Z,11.77
2018-05-29T13:08:57.588Z,12.05
2018-05-29T13:11:26.872Z,11.57
2018-05-29T13:13:54.956Z,12.18
2018-05-29T13:16:23.546Z,12.65
2018-05-29T13:18:52.069Z,12.27
2018-05-29T13:21:27.091Z,12.77
2018-05-29T13:23:55.337Z,12.68
2018-05-29T13:26:23.977Z,12.82
2018-05-29T13:28:53.658Z,12.25
2018-05-29T13:31:22.095Z,12.45
2018-05-29T13:33:50.625Z,12.48
2018-05-29T13:36:18.592Z,12.70
2018-05-29T13:38:53.254Z,12.57
2018-05-29T13:41:22.200Z,12.95
2018-05-29T13:43:50.501Z,12.65
2018-05-29T13:46:20.105Z,12.85
2018-05-29T13:48:49.423Z,12.23
2018-05-29T13:51:18.232Z,12.70
2018-05-29T13:53:46.878Z,12.93
2018-05-29T13:56:16.521Z,14.23
2018-05-29T13:58:44.885Z,13.38
2018-05-29T14:01:17.053Z,14.43
2018-05-29T14:03:45.675Z,12.82
2018-05-29T14:06:17.741Z,14.50
2018-05-29T14:08:46.700Z,13.40
2018-05-29T14:11:17.881Z,13.35
2018-05-29T14:13:46.678Z,12.55
2018-05-29T14:16:18.362Z,10.50
2018-05-29T14:18:49.862Z,9.10
2018-05-29T14:21:18.067Z,9.97
2018-05-29T14:23:47.482Z,9.97
2018-05-29T14:26:20.141Z,11.97
2018-05-29T14:28:48.809Z,9.90
2018-05-29T14:31:17.556Z,10.43
2018-05-29T14:33:49.489Z,12.37
2018-05-29T14:36:18.143Z,15.30
2018-05-29T14:38:46.651Z,15.60
2018-05-29T14:41:15.146Z,13.47
2018-05-29T14:43:44.249Z,13.83
2018-05-29T14:46:12.670Z,11.20
2018-05-29T14:48:41.398Z,11.03
2018-05-29T14:51:11.529Z,10.87
2018-05-29T14:53:40.568Z,10.90
2018-05-29T14:56:15.991Z,10.07
2018-05-29T14:58:44.775Z,10.40
2018-05-29T15:01:13.477Z,7.87
2018-05-29T15:03:43.025Z,7.53
2018-05-29T15:06:12.665Z,6.27
2018-05-29T15:08:40.727Z,7.10
2018-05-29T15:11:09.747Z,8.17
2018-05-29T15:13:38.642Z,8.80
2018-05-29T15:16:09.595Z,9.63
2018-05-29T15:18:40.957Z,9.37
2018-05-29T15:21:09.260Z,9.10
2018-05-29T15:23:38.907Z,10.90
2018-05-29T15:26:08.957Z,10.83
2018-05-29T15:28:38.133Z,11.07
2018-05-29T15:31:07.661Z,11.77
2018-05-29T15:33:37.644Z,14.35
2018-05-29T15:36:06.731Z,13.30
2018-05-29T15:38:39.039Z,14.40
2018-05-29T15:41:08.657Z,15.17
2018-05-29T15:43:39.035Z,17.60
2018-05-29T15:46:08.663Z,19.33
2018-05-29T15:48:38.394Z,20.63
2018-05-29T15:51:09.272Z,17.73
2018-05-29T15:53:38.770Z,19.13
2018-05-29T15:56:08.070Z,16.10
2018-05-29T15:58:37.432Z,17.87
2018-05-29T16:01:06.395Z,15.07
2018-05-29T16:03:39.831Z,14.87
2018-05-29T16:06:08.280Z,13.77
2018-05-29T16:08:37.170Z,15.00
2018-05-29T16:11:06.051Z,14.33
2018-05-29T16:13:35.727Z,15.60
2018-05-29T16:16:04.021Z,15.20
2018-05-29T16:18:33.086Z,15.80
2018-05-29T16:21:02.550Z,17.67
2018-05-29T16:23:32.807Z,18.83
2018-05-29T16:26:02.079Z,18.93
2018-05-29T16:28:31.174Z,14.67
2018-05-29T16:31:00.506Z,15.17
2018-05-29T16:33:29.703Z,14.50
2018-05-29T16:35:58.978Z,15.37
2018-05-29T16:38:29.711Z,17.07
2018-05-29T16:41:02.961Z,16.77
2018-05-29T16:43:31.589Z,15.50
2018-05-29T16:46:00.280Z,17.97
2018-05-29T16:48:28.481Z,16.00
2018-05-29T16:50:56.176Z,15.40
2018-05-29T16:53:25.877Z,16.70
2018-05-29T16:55:54.735Z,19.07
2018-05-29T16:58:30.363Z,19.27
2018-05-29T17:00:59.233Z,20.47
2018-05-29T17:03:31.246Z,19.90
2018-05-29T17:06:00.217Z,20.33
2018-05-29T17:08:31.272Z,22.33
2018-05-29T17:11:00.135Z,21.00
2018-05-29T17:13:29.322Z,22.20
2018-05-29T17:16:07.018Z,21.07
2018-05-29T17:18:36.917Z,20.20
2018-05-29T17:21:05.973Z,20.40
2018-05-29T17:23:35.356Z,19.07
2018-05-29T17:26:04.180Z,18.83
2018-05-29T17:28:33.975Z,20.23
2018-05-29T17:31:04.021Z,20.80
2018-05-29T17:33:33.380Z,21.00
2018-05-29T17:36:04.694Z,19.10
2018-05-29T17:38:34.280Z,19.77
2018-05-29T17:41:03.980Z,20.77
2018-05-29T17:43:32.646Z,18.93
2018-05-29T17:46:00.862Z,18.83
2018-05-29T17:48:33.098Z,19.60
2018-05-29T17:51:02.390Z,19.93
2018-05-29T17:53:34.268Z,18.97
2018-05-29T17:56:03.510Z,18.63
2018-05-29T17:58:41.120Z,20.07
2018-05-29T18:01:12.352Z,20.87
2018-05-29T18:03:46.295Z,21.73
2018-05-29T18:06:17.819Z,23.77
2018-05-29T18:08:46.819Z,24.73
2018-05-29T18:11:17.399Z,23.80
2018-05-29T18:13:47.265Z,23.90
2018-05-29T18:16:22.698Z,24.90
2018-05-29T18:18:52.012Z,26.40
2018-05-29T18:21:23.662Z,26.47
2018-05-29T18:23:53.033Z,29.50
2018-05-29T18:26:27.749Z,29.60
2018-05-29T18:28:57.131Z,29.50
2018-05-29T18:31:29.360Z,31.37
2018-05-29T18:33:59.234Z,28.23
2018-05-29T18:36:30.694Z,28.43
2018-05-29T18:39:00.709Z,26.40
2018-05-29T18:41:34.717Z,28.10
2018-05-29T18:44:04.185Z,27.37
2018-05-29T18:46:39.362Z,27.80
2018-05-29T18:49:08.649Z,26.03
2018-05-29T18:51:37.822Z,27.93
2018-05-29T18:54:07.121Z,28.17
2018-05-29T18:56:36.086Z,28.23
2018-05-29T18:59:06.802Z,27.50
2018-05-29T19:01:35.882Z,27.07
2018-05-29T19:04:04.983Z,29.27
2018-05-29T19:06:34.119Z,31.60
2018-05-29T19:09:03.256Z,28.13
2018-05-29T19:11:32.692Z,28.70
2018-05-29T19:16:55.911Z,25.87
2018-05-29T19:19:25.359Z,25.10
2018-05-29T19:21:55.793Z,25.53
2018-05-29T19:24:25.926Z,22.50
2018-05-29T19:26:55.745Z,23.20
2018-05-29T19:29:25.681Z,23.07
2018-05-29T19:31:55.370Z,22.53
2018-05-29T19:34:25.010Z,24.67
2018-05-29T19:36:54.585Z,21.93
2018-05-29T19:39:24.414Z,22.03
2018-05-29T19:41:54.489Z,19.97
2018-05-29T19:44:24.174Z,21.67
2018-05-29T19:46:54.177Z,20.27
2018-05-29T19:49:23.757Z,18.80
2018-05-29T19:51:53.379Z,21.37
2018-05-29T19:54:23.360Z,22.93
2018-05-29T19:56:53.596Z,22.80
2018-05-29T19:59:23.391Z,24.33
2018-05-29T20:01:53.470Z,25.27
2018-05-29T20:04:23.888Z,22.43
2018-05-29T20:06:53.813Z,24.57
2018-05-29T20:09:24.313Z,22.80
2018-05-29T20:11:55.373Z,24.97
2018-05-29T20:14:25.052Z,21.87
2018-05-29T20:16:53.733Z,21.58
2018-05-29T20:22:05.609Z,16.87
2018-05-29T20:24:35.015Z,17.67
2018-05-29T20:27:02.856Z,14.53
2018-05-29T20:29:32.892Z,13.07
2018-05-29T20:32:02.838Z,12.13
2018-05-29T20:34:30.743Z,9.73
2018-05-29T20:37:00.927Z,8.93
2018-05-29T20:39:30.269Z,8.83
2018-05-29T20:41:58.036Z,9.07
2018-05-29T20:44:29.205Z,8.27
2018-05-29T20:46:56.881Z,8.40
2018-05-29T20:49:26.957Z,8.37
2018-05-29T20:51:56.794Z,8.10
2018-05-29T20:54:26.317Z,8.93
2018-05-29T20:56:56.823Z,7.67
2018-05-29T20:59:26.211Z,8.20
2018-05-29T21:01:56.040Z,8.07
2018-05-29T21:04:26.214Z,8.60
2018-05-29T21:06:55.182Z,8.73
2018-05-29T21:09:24.661Z,7.87
2018-05-29T21:11:54.300Z,7.83
2018-05-29T21:14:23.329Z,8.13
2018-05-29T21:16:52.334Z,7.73
2018-05-29T21:19:21.783Z,7.63
2018-05-29T21:22:02.921Z,8.27
2018-05-29T21:24:32.449Z,7.80
2018-05-29T21:27:01.809Z,7.37
2018-05-29T21:29:35.510Z,7.77
2018-05-29T21:32:07.816Z,7.87
2018-05-29T21:34:37.624Z,8.03
2018-05-29T21:37:07.355Z,8.30
2018-05-29T21:39:36.872Z,7.37
2018-05-29T21:42:05.221Z,7.70
2018-05-29T21:44:34.561Z,8.53
2018-05-29T21:47:04.096Z,7.50
2018-05-29T21:49:34.263Z,7.23
2018-05-29T21:52:03.998Z,8.50
2018-05-29T21:54:33.878Z,8.90
2018-05-29T21:57:03.618Z,8.90
2018-05-29T21:59:33.399Z,8.97
2018-05-29T22:02:02.964Z,9.63
2018-05-29T22:04:32.466Z,9.27
2018-05-29T22:07:04.178Z,9.27
2018-05-29T22:09:33.924Z,9.53
2018-05-29T22:12:03.290Z,10.77
2018-05-29T22:14:33.278Z,10.37
2018-05-29T22:17:03.608Z,9.97
2018-05-29T22:19:33.888Z,10.37
2018-05-29T22:22:04.011Z,10.03
2018-05-29T22:24:33.523Z,9.07
2018-05-29T22:27:02.664Z,9.57
2018-05-29T22:29:32.977Z,9.23
2018-05-29T22:32:02.874Z,9.97
2018-05-29T22:34:32.725Z,10.57
2018-05-29T22:37:06.144Z,9.87
2018-05-29T22:39:35.650Z,9.50
2018-05-29T22:42:06.107Z,10.23
2018-05-29T22:44:35.873Z,9.90
2018-05-29T22:47:05.275Z,11.03
2018-05-29T22:49:34.685Z,11.97
2018-05-29T22:52:04.131Z,10.97
2018-05-29T22:54:33.599Z,12.37
2018-05-29T22:57:03.653Z,11.73
2018-05-29T22:59:33.210Z,13.00
2018-05-29T23:02:02.634Z,12.83
2018-05-29T23:04:35.511Z,13.90
2018-05-29T23:07:05.678Z,13.77
2018-05-29T23:09:36.041Z,14.30
2018-05-29T23:12:05.493Z,15.40
2018-05-29T23:14:34.888Z,15.20
2018-05-29T23:17:04.510Z,15.13
2018-05-29T23:19:34.268Z,17.97
2018-05-29T23:22:04.464Z,15.10
2018-05-29T23:24:34.340Z,14.97
2018-05-29T23:27:14.225Z,16.77
2018-05-29T23:29:43.713Z,18.67
2018-05-29T23:32:13.389Z,18.03
2018-05-29T23:34:43.035Z,19.43
2018-05-29T23:37:15.309Z,17.60
2018-05-29T23:39:45.669Z,16.77
2018-05-29T23:42:15.829Z,17.60
2018-05-29T23:44:45.415Z,17.80
2018-05-29T23:47:16.203Z,17.53
2018-05-29T23:49:45.982Z,18.00
2018-05-29T23:52:19.756Z,18.80
2018-05-29T23:54:49.321Z,18.20
2018-05-29T23:57:25.143Z,18.10
2018-05-29T23:59:55.191Z,17.50
